createdAt,value
2023-01-02T00:00:56.578Z,70.70
2023-01-02T00:03:23.107Z,70.90
2023-01-02T00:05:49.551Z,70.45
2023-01-02T00:08:18.947Z,69.28
2023-01-02T00:10:45.307Z,69.75
2023-01-02T00:13:11.973Z,68.00
2023-01-02T00:15:41.454Z,68.71
2023-01-02T00:18:07.809Z,69.35
2023-01-02T00:20:34.401Z,69.00
2023-01-02T00:23:01.803Z,67.82
2023-01-02T00:25:28.372Z,67.38
2023-01-02T00:27:56.205Z,67.52
2023-01-02T00:30:22.603Z,67.01
2023-01-02T00:32:48.904Z,67.22
2023-01-02T00:35:15.258Z,66.92
2023-01-02T00:37:41.571Z,67.50
2023-01-02T00:40:13.506Z,67.46
2023-01-02T00:42:41.003Z,67.85
2023-01-02T00:45:09.786Z,67.12
2023-01-02T00:47:36.173Z,67.91
2023-01-02T00:50:03.065Z,68.21
2023-01-02T00:52:29.487Z,68.99
2023-01-02T00:54:55.830Z,68.80
2023-01-02T00:57:22.166Z,68.85
2023-01-02T00:59:48.492Z,69.50
2023-01-02T01:02:14.850Z,68.68
2023-01-02T01:04:41.251Z,68.81
2023-01-02T01:07:07.591Z,68.19
2023-01-02T01:09:34.686Z,68.79
2023-01-02T01:12:04.773Z,69.13
2023-01-02T01:14:31.528Z,68.64
2023-01-02T01:16:57.875Z,68.94
2023-01-02T01:19:24.210Z,69.77
2023-01-02T01:21:50.563Z,70.85
2023-01-02T01:24:16.880Z,71.65
2023-01-02T01:26:43.241Z,72.91
2023-01-02T01:29:09.568Z,74.54
2023-01-02T01:31:35.985Z,75.42
2023-01-02T01:34:02.354Z,76.38
2023-01-02T01:36:28.800Z,76.56
2023-01-02T01:38:55.773Z,77.50
2023-01-02T01:41:25.634Z,78.79
2023-01-02T01:43:58.199Z,79.59
2023-01-02T01:46:45.119Z,79.79
2023-01-02T01:49:21.848Z,79.67
2023-01-02T01:51:53.764Z,80.98
2023-01-02T01:54:25.807Z,80.60
2023-01-02T01:56:57.899Z,81.03
2023-01-02T01:59:25.317Z,80.85
2023-01-02T02:01:52.117Z,81.04
2023-01-02T02:04:22.864Z,81.55
2023-01-02T02:06:50.892Z,81.85
2023-01-02T02:09:22.585Z,81.53
2023-01-02T02:11:49.549Z,80.76
2023-01-02T02:14:15.999Z,81.34
2023-01-02T02:16:53.676Z,81.06
2023-01-02T02:19:45.921Z,81.75
2023-01-02T02:22:31.563Z,81.43
2023-01-02T02:25:35.545Z,82.17
2023-01-02T02:28:36.269Z,81.66
2023-01-02T02:31:23.755Z,81.13
2023-01-02T02:33:58.850Z,80.11
2023-01-02T02:36:30.935Z,81.48
2023-01-02T02:39:21.350Z,81.21
2023-01-02T02:42:11.666Z,82.23
2023-01-02T02:44:49.708Z,82.64
2023-01-02T02:47:28.392Z,81.53
2023-01-02T02:50:10.335Z,82.96
2023-01-02T02:53:02.849Z,83.06
2023-01-02T02:55:35.650Z,82.93
2023-01-02T02:58:02.190Z,82.62
2023-01-02T03:00:28.538Z,82.18
2023-01-02T03:02:55.954Z,83.10
2023-01-02T03:05:25.369Z,83.61
2023-01-02T03:08:07.800Z,83.84
2023-01-02T03:10:52.025Z,83.48
2023-01-02T03:13:41.044Z,83.82
2023-01-02T03:16:10.937Z,84.20
2023-01-02T03:18:49.362Z,83.87
2023-01-02T03:21:31.372Z,83.29
2023-01-02T03:24:04.387Z,83.52
2023-01-02T03:26:33.071Z,83.39
2023-01-02T03:29:07.889Z,83.55
2023-01-02T03:31:38.876Z,83.76
2023-01-02T03:34:14.776Z,83.99
2023-01-02T03:36:44.355Z,84.82
2023-01-02T03:39:19.869Z,84.94
2023-01-02T03:42:10.222Z,84.99
2023-01-02T03:45:02.239Z,84.72
2023-01-02T03:47:45.651Z,84.53
2023-01-02T03:50:21.640Z,85.02
2023-01-02T03:52:48.322Z,84.79
2023-01-02T03:55:15.207Z,85.23
2023-01-02T03:58:04.578Z,84.52
2023-01-02T04:00:43.582Z,85.13
2023-01-02T04:03:21.506Z,85.57
2023-01-02T04:05:52.751Z,85.67
2023-01-02T04:08:30.824Z,86.71
2023-01-02T04:11:00.416Z,85.87
2023-01-02T04:13:32.960Z,85.88
2023-01-02T04:16:02.516Z,85.34
2023-01-02T04:18:34.114Z,86.32
2023-01-02T04:21:07.771Z,86.45
2023-01-02T04:23:40.199Z,85.54
2023-01-02T04:26:20.508Z,85.81
2023-01-02T04:28:48.738Z,85.48
2023-01-02T04:31:27.662Z,84.90
2023-01-02T04:33:58.949Z,85.53
2023-01-02T04:36:25.410Z,85.36
2023-01-02T04:38:52.003Z,85.37
2023-01-02T04:41:29.057Z,85.89
2023-01-02T04:43:56.283Z,85.92
2023-01-02T04:46:24.656Z,84.94
2023-01-02T04:48:51.404Z,84.47
2023-01-02T04:51:17.740Z,84.55
2023-01-02T04:53:46.931Z,84.12
2023-01-02T04:56:13.297Z,83.95
2023-01-02T04:58:40.764Z,82.89
2023-01-02T05:01:15.213Z,82.82
2023-01-02T05:03:44.314Z,82.64
2023-01-02T05:06:10.971Z,82.25
2023-01-02T05:08:37.985Z,82.67
2023-01-02T05:11:09.857Z,81.86
2023-01-02T05:13:36.221Z,81.84
2023-01-02T05:16:03.816Z,81.93
2023-01-02T05:18:31.494Z,81.45
2023-01-02T05:21:01.963Z,81.43
2023-01-02T05:23:46.689Z,81.35
2023-01-02T05:26:13.427Z,80.74
2023-01-02T05:28:40.359Z,80.26
2023-01-02T05:31:06.814Z,81.17
2023-01-02T05:33:34.643Z,80.71
2023-01-02T05:36:01.293Z,80.11
2023-01-02T05:38:27.619Z,79.85
2023-01-02T05:41:08.551Z,80.17
2023-01-02T05:43:37.308Z,80.89
2023-01-02T05:46:22.017Z,80.22
2023-01-02T05:48:48.461Z,80.28
2023-01-02T05:51:16.754Z,80.57
2023-01-02T05:53:43.352Z,79.67
2023-01-02T05:56:12.644Z,80.54
2023-01-02T05:58:41.469Z,80.55
2023-01-02T06:01:13.224Z,80.25
2023-01-02T06:03:39.823Z,80.14
2023-01-02T06:06:10.618Z,80.04
2023-01-02T06:08:37.985Z,80.32
2023-01-02T06:11:05.894Z,79.95
2023-01-02T06:13:33.890Z,80.15
2023-01-02T06:16:02.042Z,80.83
2023-01-02T06:18:31.166Z,81.45
2023-01-02T06:21:05.514Z,81.69
2023-01-02T06:23:32.280Z,81.91
2023-01-02T06:26:07.182Z,80.82
2023-01-02T06:28:33.655Z,81.62
2023-01-02T06:31:01.615Z,80.91
2023-01-02T06:33:28.864Z,82.12
2023-01-02T06:36:06.971Z,81.62
2023-01-02T06:38:33.412Z,81.79
2023-01-02T06:41:01.022Z,82.31
2023-01-02T06:43:28.618Z,81.80
2023-01-02T06:45:59.584Z,81.67
2023-01-02T06:48:26.678Z,82.45
2023-01-02T06:50:53.315Z,81.65
2023-01-02T06:53:19.741Z,81.86
2023-01-02T06:55:53.849Z,82.32
2023-01-02T06:58:21.351Z,82.42
2023-01-02T07:00:48.597Z,82.78
2023-01-02T07:03:15.665Z,81.91
2023-01-02T07:05:42.315Z,83.06
2023-01-02T07:08:09.274Z,82.49
2023-01-02T07:10:35.898Z,82.69
2023-01-02T07:13:02.222Z,82.69
2023-01-02T07:15:28.701Z,83.15
2023-01-02T07:17:55.271Z,83.32
2023-01-02T07:20:21.827Z,84.11
2023-01-02T07:22:52.623Z,83.73
2023-01-02T07:25:20.330Z,84.29
2023-01-02T07:27:47.070Z,83.62
2023-01-02T07:30:14.329Z,83.83
2023-01-02T07:32:40.863Z,83.53
2023-01-02T07:35:08.084Z,82.64
2023-01-02T07:37:34.428Z,82.51
2023-01-02T07:40:00.765Z,82.75
2023-01-02T07:42:27.609Z,83.43
2023-01-02T07:44:53.974Z,82.28
2023-01-02T07:47:20.325Z,82.97
2023-01-02T07:49:46.661Z,82.31
2023-01-02T07:52:13.081Z,82.70
2023-01-02T07:54:39.397Z,82.92
2023-01-02T07:57:05.746Z,82.38
2023-01-02T07:59:32.101Z,82.23
2023-01-02T08:01:58.540Z,83.11
2023-01-02T08:04:25.062Z,83.37
2023-01-02T08:14:50.035Z,83.51
2023-01-02T08:17:17.648Z,83.25
2023-01-02T08:19:44.074Z,83.91
2023-01-02T08:22:10.457Z,83.96
2023-01-02T08:24:36.837Z,84.57
2023-01-02T08:27:03.266Z,84.51
2023-01-02T08:29:29.615Z,84.90
2023-01-02T08:31:58.696Z,84.98
2023-01-02T08:34:25.197Z,84.27
2023-01-02T08:36:52.366Z,85.04
2023-01-02T08:39:18.692Z,85.94
2023-01-02T08:41:45.017Z,85.14
2023-01-02T08:44:11.361Z,85.28
2023-01-02T08:46:42.583Z,85.55
2023-01-02T08:49:10.292Z,85.64
2023-01-02T08:51:36.690Z,85.79
2023-01-02T08:54:03.122Z,85.12
2023-01-02T08:56:31.924Z,85.36
2023-01-02T08:59:01.315Z,86.79
2023-01-02T09:01:29.715Z,85.64
2023-01-02T09:03:56.622Z,86.13
2023-01-02T09:06:25.705Z,86.43
2023-01-02T09:08:55.240Z,86.33
2023-01-02T09:11:36.542Z,86.73
2023-01-02T09:14:04.411Z,87.15
2023-01-02T09:16:32.119Z,87.24
2023-01-02T09:19:00.159Z,87.38
2023-01-02T09:21:28.131Z,87.86
2023-01-02T09:23:54.494Z,87.32
2023-01-02T09:26:21.159Z,88.06
2023-01-02T09:28:47.511Z,88.02
2023-01-02T09:31:16.147Z,87.91
2023-01-02T09:33:43.732Z,87.22
2023-01-02T09:36:12.425Z,86.34
2023-01-02T09:38:39.068Z,86.16
2023-01-02T09:41:22.430Z,86.31
2023-01-02T09:43:59.785Z,86.29
2023-01-02T09:46:36.874Z,85.96
2023-01-02T09:49:04.126Z,85.95
2023-01-02T09:51:32.328Z,85.96
2023-01-02T09:53:59.021Z,85.70
2023-01-02T09:56:34.499Z,85.86
2023-01-02T09:59:21.038Z,85.83
2023-01-02T10:01:58.580Z,86.06
2023-01-02T10:04:36.875Z,86.12
2023-01-02T10:07:13.338Z,86.03
2023-01-02T10:10:01.577Z,85.19
2023-01-02T10:12:36.629Z,85.53
2023-01-02T10:15:06.998Z,85.35
2023-01-02T10:17:39.272Z,86.11
2023-01-02T10:20:20.421Z,85.50
2023-01-02T10:23:13.361Z,85.87
2023-01-02T10:25:57.409Z,86.37
2023-01-02T10:28:54.533Z,85.99
2023-01-02T10:31:57.911Z,86.48
2023-01-02T10:34:24.400Z,86.38
2023-01-02T10:36:50.988Z,84.82
2023-01-02T10:39:24.409Z,84.56
2023-01-02T10:41:57.370Z,84.58
2023-01-02T10:44:27.765Z,84.17
2023-01-02T10:46:55.585Z,84.71
2023-01-02T10:49:25.307Z,85.05
2023-01-02T10:52:17.744Z,84.56
2023-01-02T10:55:00.525Z,85.89
2023-01-02T10:57:42.753Z,85.48
2023-01-02T11:00:21.339Z,85.17
2023-01-02T11:02:55.284Z,84.99
2023-01-02T11:05:24.633Z,84.98
2023-01-02T11:07:52.757Z,84.62
2023-01-02T11:10:32.326Z,84.52
2023-01-02T11:13:03.216Z,84.19
2023-01-02T11:15:34.308Z,84.08
2023-01-02T11:18:03.376Z,83.59
2023-01-02T11:20:33.993Z,83.62
2023-01-02T11:23:02.274Z,82.46
2023-01-02T11:25:35.972Z,81.74
2023-01-02T11:28:03.155Z,82.13
2023-01-02T11:31:05.976Z,81.44
2023-01-02T11:33:34.703Z,82.31
2023-01-02T11:36:03.841Z,82.19
2023-01-02T11:38:54.177Z,82.33
2023-01-02T11:41:45.338Z,83.02
2023-01-02T11:44:22.804Z,82.70
2023-01-02T11:46:50.594Z,81.74
2023-01-02T11:49:25.158Z,81.86
2023-01-02T11:52:04.233Z,81.67
2023-01-02T11:54:41.752Z,81.90
2023-01-02T11:57:29.252Z,82.63
2023-01-02T11:59:59.094Z,82.62
2023-01-02T12:02:40.926Z,82.35
2023-01-02T12:05:13.346Z,82.34
2023-01-02T12:07:50.429Z,81.10
2023-01-02T12:10:42.897Z,81.95
2023-01-02T12:13:42.169Z,80.90
2023-01-02T12:16:08.582Z,81.07
2023-01-02T12:18:44.358Z,81.23
2023-01-02T12:21:31.796Z,81.16
2023-01-02T12:24:13.621Z,81.49
2023-01-02T12:27:12.369Z,81.38
2023-01-02T12:29:48.724Z,81.86
2023-01-02T12:32:38.332Z,81.95
2023-01-02T12:35:16.828Z,81.67
2023-01-02T12:38:01.996Z,81.16
2023-01-02T12:40:49.728Z,81.17
2023-01-02T12:43:40.582Z,81.15
2023-01-02T12:46:07.028Z,80.95
2023-01-02T12:49:00.796Z,80.77
2023-01-02T12:51:36.171Z,80.97
2023-01-02T12:54:37.105Z,81.18
2023-01-02T12:57:31.508Z,80.85
2023-01-02T13:00:16.305Z,81.12
2023-01-02T13:03:05.931Z,81.03
2023-01-02T13:05:39.572Z,81.08
2023-01-02T13:08:20.575Z,81.36
2023-01-02T13:10:48.124Z,81.65
2023-01-02T13:13:15.918Z,81.64
2023-01-02T13:15:47.523Z,81.62
2023-01-02T13:18:23.802Z,81.27
2023-01-02T13:20:58.048Z,81.77
2023-01-02T13:23:33.629Z,81.88
2023-01-02T13:26:23.187Z,82.62
2023-01-02T13:28:52.244Z,82.76
2023-01-02T13:31:45.547Z,82.50
2023-01-02T13:34:15.040Z,82.46
2023-01-02T13:36:48.907Z,82.52
2023-01-02T13:39:22.919Z,83.21
2023-01-02T13:42:17.207Z,82.82
2023-01-02T13:44:51.131Z,82.76
2023-01-02T13:47:31.839Z,82.26
2023-01-02T13:50:14.495Z,82.47
2023-01-02T13:52:41.597Z,82.22
2023-01-02T13:55:21.016Z,81.79
2023-01-02T13:58:07.848Z,81.52
2023-01-02T14:00:37.420Z,82.00
2023-01-02T14:03:25.291Z,82.42
2023-01-02T14:06:00.589Z,82.45
2023-01-02T14:08:28.290Z,82.83
2023-01-02T14:11:09.994Z,82.58
2023-01-02T14:13:42.063Z,82.48
2023-01-02T14:16:11.707Z,82.62
2023-01-02T14:18:45.863Z,82.31
2023-01-02T14:21:15.956Z,81.45
2023-01-02T14:24:18.156Z,81.72
2023-01-02T14:26:37.759Z,81.27
2023-01-02T14:29:16.636Z,80.64
2023-01-02T14:31:43.713Z,80.32
2023-01-02T14:34:21.334Z,80.15
2023-01-02T14:36:49.615Z,80.46
2023-01-02T14:39:36.586Z,81.38
2023-01-02T14:42:35.363Z,80.84
2023-01-02T14:45:07.207Z,82.03
2023-01-02T14:47:45.889Z,81.34
2023-01-02T14:50:22.911Z,81.53
2023-01-02T14:53:06.108Z,81.45
2023-01-02T14:55:41.576Z,81.19
2023-01-02T14:58:19.140Z,81.87
2023-01-02T15:00:47.550Z,81.72
2023-01-02T15:03:21.099Z,81.79
2023-01-02T15:06:00.478Z,81.61
2023-01-02T15:08:35.092Z,81.82
2023-01-02T15:11:23.108Z,81.29
2023-01-02T15:14:04.725Z,81.00
2023-01-02T15:16:38.022Z,81.13
2023-01-02T15:19:04.545Z,81.62
2023-01-02T15:21:31.655Z,79.98
2023-01-02T15:24:00.161Z,79.67
2023-01-02T15:26:34.711Z,79.03
2023-01-02T15:29:06.900Z,78.45
2023-01-02T15:31:33.462Z,78.68
2023-01-02T15:34:01.069Z,78.38
2023-01-02T15:36:45.822Z,78.45
2023-01-02T15:39:27.829Z,78.39
2023-01-02T15:41:55.553Z,78.32
2023-01-02T15:44:42.545Z,78.48
2023-01-02T15:47:09.840Z,78.13
2023-01-02T15:49:40.660Z,78.90
2023-01-02T15:52:26.093Z,79.66
2023-01-02T15:54:53.578Z,79.29
2023-01-02T15:57:27.617Z,79.97
2023-01-02T15:59:54.587Z,79.50
2023-01-02T16:02:36.447Z,79.59
2023-01-02T16:05:17.828Z,79.02
2023-01-02T16:07:55.677Z,79.32
2023-01-02T16:10:29.431Z,79.05
2023-01-02T16:13:25.272Z,79.57
2023-01-02T16:16:15.822Z,80.30
2023-01-02T16:18:46.690Z,80.72
2023-01-02T16:21:15.750Z,81.20
2023-01-02T16:23:50.338Z,81.28
2023-01-02T16:26:19.168Z,81.16
2023-01-02T16:28:49.083Z,81.24
2023-01-02T16:31:18.240Z,81.62
2023-01-02T16:33:48.853Z,81.55
2023-01-02T16:36:17.863Z,81.43
2023-01-02T16:39:02.393Z,81.26
2023-01-02T16:41:36.640Z,81.72
2023-01-02T16:44:15.098Z,82.07
2023-01-02T16:46:48.720Z,81.84
2023-01-02T16:49:19.266Z,81.56
2023-01-02T16:51:50.055Z,81.99
2023-01-02T16:54:19.383Z,81.40
2023-01-02T16:56:49.858Z,81.47
2023-01-02T16:59:16.248Z,81.36
2023-01-02T17:01:42.998Z,81.94
2023-01-02T17:04:12.711Z,82.40
2023-01-02T17:06:41.336Z,81.83
2023-01-02T17:09:10.555Z,82.30
2023-01-02T17:11:37.754Z,82.24
2023-01-02T17:14:04.227Z,81.74
2023-01-02T17:16:30.779Z,80.88
2023-01-02T17:18:57.457Z,81.35
2023-01-02T17:21:32.814Z,80.75
2023-01-02T17:23:59.776Z,80.16
2023-01-02T17:26:26.195Z,79.84
2023-01-02T17:28:54.707Z,80.20
2023-01-02T17:31:25.563Z,79.81
2023-01-02T17:33:52.652Z,80.27
2023-01-02T17:36:19.059Z,80.12
2023-01-02T17:38:45.437Z,79.97
2023-01-02T17:41:11.879Z,79.82
2023-01-02T17:44:02.168Z,80.09
2023-01-02T17:47:04.341Z,80.24
2023-01-02T17:49:14.928Z,80.39
2023-01-02T17:51:41.495Z,80.23
2023-01-02T17:54:07.948Z,80.62
2023-01-02T17:56:34.376Z,80.74
2023-01-02T17:59:01.150Z,81.42
2023-01-02T18:01:27.860Z,81.53
2023-01-02T18:03:54.381Z,81.44
2023-01-02T18:06:20.838Z,81.73
2023-01-02T18:08:47.478Z,82.07
2023-01-02T18:11:16.169Z,82.40
2023-01-02T18:13:46.752Z,82.23
2023-01-02T18:16:40.912Z,82.61
2023-01-02T18:19:13.013Z,82.26
2023-01-02T18:21:39.498Z,82.45
2023-01-02T18:24:25.180Z,82.24
2023-01-02T18:26:59.452Z,82.67
2023-01-02T18:29:28.031Z,82.65
2023-01-02T18:31:54.744Z,82.84
2023-01-02T18:37:28.504Z,82.69
2023-01-02T18:39:56.507Z,82.81
2023-01-02T18:42:29.536Z,82.96
2023-01-02T18:44:59.091Z,83.32
2023-01-02T18:47:34.836Z,83.24
2023-01-02T18:50:34.751Z,83.38
2023-01-02T18:53:18.683Z,83.27
2023-01-02T18:55:45.581Z,83.97
2023-01-02T18:58:40.781Z,84.07
2023-01-02T19:01:26.251Z,83.72
2023-01-02T19:04:18.924Z,84.80
2023-01-02T19:06:51.523Z,84.16
2023-01-02T19:09:21.566Z,84.26
2023-01-02T19:12:14.410Z,84.36
2023-01-02T19:14:43.106Z,84.02
2023-01-02T19:17:22.812Z,84.17
2023-01-02T19:19:50.044Z,84.72
2023-01-02T19:22:19.080Z,84.46
2023-01-02T19:24:45.875Z,84.58
2023-01-02T19:27:25.929Z,84.48
2023-01-02T19:29:53.374Z,84.37
2023-01-02T19:32:19.837Z,84.37
2023-01-02T19:34:54.192Z,84.55
2023-01-02T19:37:41.053Z,84.44
2023-01-02T19:40:19.372Z,83.94
2023-01-02T19:42:50.161Z,84.13
2023-01-02T19:45:21.963Z,84.59
2023-01-02T19:47:49.500Z,84.50
2023-01-02T19:50:21.626Z,84.54
2023-01-02T19:52:48.787Z,84.48
2023-01-02T19:55:15.886Z,84.31
2023-01-02T19:57:42.280Z,83.95
2023-01-02T20:00:14.142Z,84.12
2023-01-02T20:02:42.927Z,84.55
2023-01-02T20:05:10.199Z,84.78
2023-01-02T20:07:36.671Z,84.55
2023-01-02T20:10:03.621Z,84.11
2023-01-02T20:12:30.071Z,84.44
2023-01-02T20:14:57.953Z,84.57
2023-01-02T20:17:24.524Z,84.59
2023-01-02T20:19:51.163Z,83.98
2023-01-02T20:22:17.609Z,83.71
2023-01-02T20:24:44.016Z,83.81
2023-01-02T20:27:10.388Z,83.70
2023-01-02T20:29:36.846Z,84.08
2023-01-02T20:32:03.243Z,83.77
2023-01-02T20:34:29.588Z,83.52
2023-01-02T20:36:56.159Z,83.63
2023-01-02T20:39:22.765Z,82.93
2023-01-02T20:41:49.475Z,83.27
2023-01-02T20:44:16.081Z,82.72
2023-01-02T20:46:42.773Z,83.13
2023-01-02T20:49:09.934Z,83.14
2023-01-02T20:51:37.232Z,83.33
2023-01-02T20:54:05.091Z,83.41
2023-01-02T20:56:31.931Z,83.06
2023-01-02T20:58:58.941Z,83.59
2023-01-02T21:01:25.555Z,83.26
2023-01-02T21:03:52.693Z,83.06
2023-01-02T21:06:20.208Z,83.07
2023-01-02T21:08:46.600Z,83.22
2023-01-02T21:11:12.996Z,82.44
2023-01-02T21:13:39.365Z,82.80
2023-01-02T21:16:05.873Z,82.99
2023-01-02T21:18:34.867Z,82.79
2023-01-02T21:21:17.556Z,82.67
2023-01-02T21:23:44.448Z,82.74
2023-01-02T21:26:13.927Z,82.38
2023-01-02T21:28:43.780Z,82.15
2023-01-02T21:31:11.223Z,82.00
2023-01-02T21:33:37.723Z,82.21
2023-01-02T21:36:08.498Z,82.42
2023-01-02T21:38:36.133Z,82.33
2023-01-02T21:41:21.384Z,82.28
2023-01-02T21:43:48.639Z,81.95
2023-01-02T21:46:15.948Z,81.96
2023-01-02T21:48:42.488Z,81.46
2023-01-02T21:51:08.936Z,81.59
2023-01-02T21:53:35.385Z,81.39
2023-01-02T21:56:01.806Z,81.60
2023-01-02T21:58:28.171Z,81.70
2023-01-02T22:00:54.578Z,82.66
2023-01-02T22:03:21.054Z,82.34
2023-01-02T22:05:47.490Z,82.57
2023-01-02T22:08:14.092Z,83.39
2023-01-02T22:10:40.521Z,83.26
2023-01-02T22:13:06.895Z,83.78
2023-01-02T22:15:33.280Z,83.32
2023-01-02T22:17:59.643Z,84.20
2023-01-02T22:20:26.031Z,83.66
2023-01-02T22:22:52.393Z,84.26
2023-01-02T22:25:18.860Z,84.14
2023-01-02T22:27:45.239Z,84.04
2023-01-02T22:30:23.269Z,84.29
2023-01-02T22:32:52.636Z,84.66
2023-01-02T22:35:19.228Z,85.04
2023-01-02T22:37:45.659Z,85.39
2023-01-02T22:40:12.558Z,85.72
2023-01-02T22:43:03.841Z,86.07
2023-01-02T22:45:46.253Z,86.26
2023-01-02T22:48:21.171Z,86.20
2023-01-02T22:50:49.475Z,86.38
2023-01-02T22:53:20.761Z,86.60
2023-01-02T22:55:47.997Z,86.51
2023-01-02T22:58:14.748Z,86.24
2023-01-02T23:00:41.156Z,86.90
2023-01-02T23:03:15.070Z,86.92
2023-01-02T23:05:42.094Z,86.75
2023-01-02T23:08:08.817Z,86.96
2023-01-02T23:10:35.296Z,87.17
2023-01-02T23:13:02.069Z,86.91
2023-01-02T23:15:28.499Z,87.45
2023-01-02T23:18:13.973Z,87.30
2023-01-02T23:20:40.354Z,87.54
2023-01-02T23:23:07.416Z,87.51
2023-01-02T23:25:33.798Z,87.88
2023-01-02T23:28:00.158Z,87.56
2023-01-02T23:30:26.638Z,87.59
2023-01-02T23:32:52.993Z,87.90
2023-01-02T23:35:19.442Z,87.73
2023-01-02T23:37:45.801Z,88.02
2023-01-02T23:40:12.493Z,87.55
2023-01-02T23:42:38.852Z,87.57
2023-01-02T23:45:05.590Z,86.86
2023-01-02T23:47:32.002Z,87.07
2023-01-02T23:49:58.393Z,86.56
2023-01-02T23:52:24.749Z,86.37
2023-01-02T23:54:51.147Z,86.11
2023-01-02T23:57:17.527Z,86.70
2023-01-02T23:59:43.993Z,85.86
